Airfield :







YOU CAN JOIN US ON...

 
LOGIN :

Register | Disclaimer

   EN    FR    IT 

 









Legend :    VFR   Marginal VFR   IFR   Intensive IFR   Very Intensive IFR
Visi :
Ceiling :
>= 8 km
>= 3000ft
5 to 8 km
1000 to 3000 ft
1500m to 5 km
500 to 1000 ft
800 to 1500m
200 to 500 ft
< 800m
< 200 ft
Symbols :   Thunderstorms  Fog  Heavy snow  Heavy precipitations  Wind > 20 kt






- Airport Elevation : 1709 ft
- IATA code : YKL


CYKL - Schefferville

CURRENT METAR :
  • 170600Z AUTO 28002KT 9SM OVC014 02/01 A2986 RMK SLP137

EXPIRED METARs :
  • 170500Z AUTO 32003KT 310V050 9SM BKN011 OVC018 02/01 A2984 RMK SLP132
  • 170413Z AUTO 28006KT 9SM BKN011 OVC018 02/01 A2984 RMK SLP131
  • 170400Z AUTO 30006KT 9SM OVC009 02/01 A2983 RMK SLP130

TAF AMD TAF CYKL
Valid from the 17 at 04:00 until the 17 at 14:00 UTC


170407Z 1704/1714 29010KT P6SM OVC007
TEMPO 1704/1713 OVC012
PROB30 1706/1712 1SM BR BKN004
FM171300 19006KT 2SM -SN OVC005 RMK FCST BASED ON AUTO OBS. NXT FCST BY 170800Z



MET'MAP, your aeronautical weather chart ! - Copyright ORBIFLY December 2007 - Disclaimer

ORBIFLY MET'MAP TEAM :

Programming & Development : Alexandra Zaïnal
Concept & Development : Baudouin d'Aumeries
Co-Development & Prog : Marc-Olivier Méhu
Technical & hardware support : Manuel Goepfert

Contact : metmap@orbifly.com




SOURCES & CREDITS :

   NOAA